createdAt,value
2018-11-27T00:00:30.356Z,60.90
2018-11-27T00:03:06.635Z,60.83
2018-11-27T00:05:41.158Z,61.04
2018-11-27T00:08:15.083Z,61.00
2018-11-27T00:10:49.044Z,60.94
2018-11-27T00:13:22.849Z,60.82
2018-11-27T00:15:56.824Z,60.94
2018-11-27T00:18:30.684Z,61.14
2018-11-27T00:21:04.585Z,61.10
2018-11-27T00:23:38.504Z,61.37
2018-11-27T00:26:12.357Z,61.28
2018-11-27T00:28:46.181Z,61.48
2018-11-27T00:31:20.030Z,61.26
2018-11-27T00:33:53.882Z,61.19
2018-11-27T00:36:27.734Z,61.38
2018-11-27T00:39:01.613Z,61.15
2018-11-27T00:41:35.595Z,61.39
2018-11-27T00:44:10.529Z,61.07
2018-11-27T00:46:44.401Z,61.18
2018-11-27T00:49:18.286Z,61.17
2018-11-27T00:51:52.262Z,60.96
2018-11-27T00:54:26.162Z,61.45
2018-11-27T00:57:00.190Z,61.17
2018-11-27T00:59:34.056Z,61.24
2018-11-27T01:02:08.142Z,60.54
2018-11-27T01:04:41.954Z,60.93
2018-11-27T01:07:16.175Z,61.04
2018-11-27T01:09:50.125Z,60.88
2018-11-27T01:12:24.202Z,60.51
2018-11-27T01:14:59.069Z,60.82
2018-11-27T01:17:32.993Z,60.62
2018-11-27T01:20:13.013Z,60.57
2018-11-27T01:22:46.994Z,60.55
2018-11-27T01:25:20.863Z,60.71
2018-11-27T01:27:54.737Z,60.53
2018-11-27T01:30:28.558Z,60.44
2018-11-27T01:33:02.411Z,60.47
2018-11-27T01:35:36.315Z,60.54
2018-11-27T01:38:10.210Z,60.51
2018-11-27T01:40:44.043Z,60.32
2018-11-27T01:43:18.027Z,60.59
2018-11-27T01:45:51.862Z,60.61
2018-11-27T01:48:25.722Z,60.53
2018-11-27T01:50:59.572Z,60.79
2018-11-27T01:53:33.489Z,60.77
2018-11-27T01:56:07.435Z,60.89
2018-11-27T01:58:41.384Z,60.87
2018-11-27T02:01:15.251Z,60.79
2018-11-27T02:03:49.200Z,60.73
2018-11-27T02:06:23.101Z,60.76
2018-11-27T02:08:57.023Z,60.73
2018-11-27T02:11:30.858Z,61.18
2018-11-27T02:14:04.910Z,61.44
2018-11-27T02:16:38.774Z,61.30
2018-11-27T02:19:12.631Z,61.26
2018-11-27T02:21:46.462Z,61.17
2018-11-27T02:24:20.545Z,60.72
2018-11-27T02:26:54.571Z,61.31
2018-11-27T02:29:28.684Z,61.17
2018-11-27T02:32:02.622Z,61.40
2018-11-27T02:34:36.484Z,61.40
2018-11-27T02:37:10.328Z,61.32
2018-11-27T02:39:44.246Z,61.08
2018-11-27T02:42:18.327Z,61.24
2018-11-27T02:44:52.445Z,61.21
2018-11-27T02:47:26.472Z,61.22
2018-11-27T02:50:00.502Z,61.22
2018-11-27T02:52:34.526Z,61.50
2018-11-27T02:55:12.014Z,61.46
2018-11-27T02:57:45.999Z,61.75
2018-11-27T03:00:25.167Z,61.78
2018-11-27T03:02:59.168Z,61.77
2018-11-27T03:05:35.126Z,62.27
2018-11-27T03:08:09.126Z,62.39
2018-11-27T03:10:43.149Z,62.36
2018-11-27T03:13:17.353Z,62.96
2018-11-27T03:15:51.408Z,63.73
2018-11-27T03:18:25.445Z,63.40
2018-11-27T03:20:59.535Z,63.45
2018-11-27T03:23:33.575Z,63.04
2018-11-27T03:26:07.905Z,63.78
2018-11-27T03:28:41.939Z,63.47
2018-11-27T03:31:16.120Z,63.19
2018-11-27T03:33:50.105Z,63.06
2018-11-27T03:36:24.159Z,62.73
2018-11-27T03:38:58.144Z,62.95
2018-11-27T03:41:32.215Z,63.32
2018-11-27T03:44:06.619Z,63.28
2018-11-27T03:46:40.628Z,63.27
2018-11-27T03:49:14.573Z,62.85
2018-11-27T03:51:48.559Z,63.49
2018-11-27T03:54:22.524Z,63.79
2018-11-27T03:56:56.521Z,63.78
2018-11-27T03:59:30.447Z,63.39
2018-11-27T04:02:04.602Z,63.38
2018-11-27T04:04:38.575Z,63.15
2018-11-27T04:07:12.633Z,62.89
2018-11-27T04:09:46.651Z,63.07
2018-11-27T04:12:20.684Z,62.84
2018-11-27T04:14:54.783Z,63.20
2018-11-27T04:17:28.838Z,63.42
2018-11-27T04:20:03.404Z,63.51
2018-11-27T04:22:37.807Z,63.08
2018-11-27T04:25:13.829Z,62.75
2018-11-27T04:27:48.505Z,62.38
2018-11-27T04:30:23.196Z,63.01
2018-11-27T04:32:57.193Z,62.80
2018-11-27T04:35:31.220Z,62.75
2018-11-27T04:38:05.449Z,62.72
2018-11-27T04:40:39.416Z,62.86
2018-11-27T04:43:13.523Z,63.04
2018-11-27T04:45:47.460Z,62.67
2018-11-27T04:48:21.787Z,62.63
2018-11-27T04:50:55.769Z,62.70
2018-11-27T04:53:29.855Z,62.62
2018-11-27T04:56:03.888Z,62.47
2018-11-27T04:58:37.853Z,62.43
2018-11-27T05:01:11.778Z,62.61
2018-11-27T05:03:45.767Z,63.24
2018-11-27T05:06:19.706Z,62.89
2018-11-27T05:08:53.780Z,63.05
2018-11-27T05:11:27.761Z,62.86
2018-11-27T05:14:01.759Z,62.61
2018-11-27T05:16:35.758Z,62.40
2018-11-27T05:19:09.733Z,62.48
2018-11-27T05:21:45.745Z,62.30
2018-11-27T05:24:19.836Z,62.24
2018-11-27T05:26:53.795Z,62.06
2018-11-27T05:29:27.764Z,62.07
2018-11-27T05:32:01.712Z,61.84
2018-11-27T05:34:35.718Z,62.31
2018-11-27T05:37:09.731Z,62.19
2018-11-27T05:39:44.027Z,62.29
2018-11-27T05:42:18.049Z,62.69
2018-11-27T05:44:52.028Z,62.49
2018-11-27T05:47:25.969Z,62.30
2018-11-27T05:50:00.006Z,62.23
2018-11-27T05:52:33.947Z,62.17
2018-11-27T05:55:09.350Z,62.10
2018-11-27T05:57:43.964Z,62.15
2018-11-27T06:00:21.258Z,62.10
2018-11-27T06:02:57.584Z,61.82
2018-11-27T06:05:31.514Z,61.69
2018-11-27T06:08:05.537Z,61.66
2018-11-27T06:10:39.487Z,61.60
2018-11-27T06:13:13.508Z,61.53
2018-11-27T06:15:47.604Z,61.50
2018-11-27T06:18:21.540Z,61.54
2018-11-27T06:20:55.593Z,61.87
2018-11-27T06:23:29.500Z,61.51
2018-11-27T06:26:03.526Z,61.55
2018-11-27T06:28:37.460Z,61.33
2018-11-27T06:31:11.429Z,61.11
2018-11-27T06:33:45.437Z,61.21
2018-11-27T06:36:19.495Z,61.12
2018-11-27T06:38:53.439Z,61.22
2018-11-27T06:41:27.415Z,61.25
2018-11-27T06:44:01.411Z,61.15
2018-11-27T06:46:35.454Z,61.08
2018-11-27T06:49:09.371Z,60.98
2018-11-27T06:51:43.416Z,61.01
2018-11-27T06:54:17.362Z,60.90
2018-11-27T06:56:51.459Z,60.98
2018-11-27T06:59:25.495Z,60.72
2018-11-27T07:01:59.654Z,60.90
2018-11-27T07:04:33.612Z,60.97
2018-11-27T07:07:07.629Z,60.98
2018-11-27T07:09:41.585Z,60.99
2018-11-27T07:12:15.555Z,60.84
2018-11-27T07:14:49.710Z,60.79
2018-11-27T07:17:23.704Z,60.78
2018-11-27T07:19:57.627Z,60.76
2018-11-27T07:22:31.626Z,60.70
2018-11-27T07:25:06.781Z,60.63
2018-11-27T07:27:41.160Z,60.35
2018-11-27T07:30:17.280Z,60.60
2018-11-27T07:32:51.376Z,60.48
2018-11-27T07:35:25.312Z,60.43
2018-11-27T07:37:59.310Z,60.57
2018-11-27T07:40:33.284Z,60.54
2018-11-27T07:43:12.408Z,60.53
2018-11-27T07:45:46.436Z,60.20
2018-11-27T07:48:20.399Z,59.87
2018-11-27T07:50:54.332Z,60.24
2018-11-27T07:53:28.300Z,60.05
2018-11-27T07:56:02.249Z,60.10
2018-11-27T07:58:36.327Z,60.03
2018-11-27T08:01:10.370Z,59.90
2018-11-27T08:03:44.346Z,59.73
2018-11-27T08:06:18.443Z,59.89
2018-11-27T08:08:52.497Z,59.54
2018-11-27T08:11:26.434Z,59.69
2018-11-27T08:14:00.424Z,59.57
2018-11-27T08:16:34.519Z,59.70
2018-11-27T08:19:08.505Z,59.50
2018-11-27T08:21:43.375Z,59.76
2018-11-27T08:24:17.387Z,59.51
2018-11-27T08:26:51.384Z,59.66
2018-11-27T08:29:25.478Z,59.44
2018-11-27T08:31:59.923Z,59.23
2018-11-27T08:34:34.020Z,59.27
2018-11-27T08:37:07.958Z,59.23
2018-11-27T08:39:41.907Z,59.13
2018-11-27T08:42:16.295Z,59.22
2018-11-27T08:44:50.317Z,59.18
2018-11-27T08:47:24.335Z,59.05
2018-11-27T08:49:58.879Z,59.05
2018-11-27T08:52:33.891Z,59.16
2018-11-27T08:55:10.983Z,58.97
2018-11-27T08:57:46.417Z,58.84
2018-11-27T09:00:22.936Z,58.84
2018-11-27T09:02:56.892Z,58.90
2018-11-27T09:05:30.976Z,58.87
2018-11-27T09:08:05.694Z,58.74
2018-11-27T09:10:39.844Z,58.93
2018-11-27T09:13:13.998Z,59.03
2018-11-27T09:15:47.925Z,58.87
2018-11-27T09:18:25.472Z,58.85
2018-11-27T09:20:59.827Z,58.87
2018-11-27T09:23:33.975Z,58.84
2018-11-27T09:26:08.185Z,58.78
2018-11-27T09:28:42.146Z,58.66
2018-11-27T09:31:16.184Z,58.59
2018-11-27T09:33:50.110Z,58.64
2018-11-27T09:36:24.387Z,58.32
2018-11-27T09:38:58.707Z,58.18
2018-11-27T09:41:32.701Z,58.51
2018-11-27T09:44:07.707Z,58.14
2018-11-27T09:46:42.699Z,57.81
2018-11-27T09:49:16.865Z,58.18
2018-11-27T09:51:50.830Z,58.05
2018-11-27T09:54:24.899Z,57.87
2018-11-27T09:56:59.025Z,58.25
2018-11-27T09:59:32.992Z,58.25
2018-11-27T10:02:07.232Z,58.06
2018-11-27T10:04:41.207Z,57.86
2018-11-27T10:07:15.258Z,57.42
2018-11-27T10:09:49.187Z,57.47
2018-11-27T10:12:23.293Z,57.44
2018-11-27T10:14:57.242Z,57.50
2018-11-27T10:17:31.243Z,57.38
2018-11-27T10:20:05.885Z,57.16
2018-11-27T10:22:39.969Z,57.67
2018-11-27T10:25:14.185Z,57.94
2018-11-27T10:27:48.447Z,57.48
2018-11-27T10:30:24.473Z,57.37
2018-11-27T10:32:59.547Z,57.67
2018-11-27T10:35:38.979Z,57.28
2018-11-27T10:38:13.151Z,57.13
2018-11-27T10:40:47.348Z,57.41
2018-11-27T10:43:21.563Z,57.29
2018-11-27T10:45:55.733Z,57.19
2018-11-27T10:48:29.915Z,57.57
2018-11-27T10:51:03.894Z,56.95
2018-11-27T10:53:37.945Z,57.38
2018-11-27T10:56:11.933Z,57.61
2018-11-27T10:58:45.900Z,57.99
2018-11-27T11:01:24.878Z,57.57
2018-11-27T11:03:59.012Z,57.48
2018-11-27T11:06:33.731Z,57.32
2018-11-27T11:09:09.945Z,57.57
2018-11-27T11:11:44.611Z,57.91
2018-11-27T11:14:18.831Z,57.45
2018-11-27T11:16:53.121Z,57.41
2018-11-27T11:19:27.410Z,57.70
2018-11-27T11:22:01.354Z,57.25
2018-11-27T11:24:35.600Z,57.25
2018-11-27T11:27:09.758Z,57.41
2018-11-27T11:29:43.723Z,57.26
2018-11-27T11:32:17.857Z,57.55
2018-11-27T11:34:51.967Z,57.63
2018-11-27T11:37:25.919Z,56.66
2018-11-27T11:39:59.916Z,56.44
2018-11-27T11:42:33.893Z,56.33
2018-11-27T11:45:09.222Z,56.23
2018-11-27T11:47:43.301Z,56.46
2018-11-27T11:50:19.380Z,56.04
2018-11-27T11:52:58.579Z,56.41
2018-11-27T11:55:32.568Z,56.65
2018-11-27T11:58:07.712Z,56.21
2018-11-27T12:00:46.457Z,55.63
2018-11-27T12:03:20.475Z,55.15
2018-11-27T12:05:54.577Z,55.10
2018-11-27T12:08:28.662Z,54.76
2018-11-27T12:11:02.797Z,54.49
2018-11-27T12:13:36.927Z,53.83
2018-11-27T12:16:11.021Z,53.71
2018-11-27T12:18:45.108Z,53.79
2018-11-27T12:21:19.150Z,53.59
2018-11-27T12:23:53.081Z,53.15
2018-11-27T12:26:27.391Z,53.02
2018-11-27T12:29:01.399Z,53.02
2018-11-27T12:31:35.413Z,53.89
2018-11-27T12:34:09.408Z,53.78
2018-11-27T12:36:43.419Z,53.25
2018-11-27T12:39:17.449Z,52.87
2018-11-27T12:41:51.728Z,53.30
2018-11-27T12:44:25.891Z,53.42
2018-11-27T12:46:59.893Z,53.27
2018-11-27T12:49:33.830Z,52.97
2018-11-27T12:52:07.933Z,52.90
2018-11-27T12:54:41.989Z,52.18
2018-11-27T12:57:16.070Z,52.10
2018-11-27T12:59:50.088Z,52.85
2018-11-27T13:02:24.085Z,52.89
2018-11-27T13:04:58.138Z,52.50
2018-11-27T13:07:32.280Z,52.80
2018-11-27T13:10:10.099Z,52.41
2018-11-27T13:12:44.754Z,53.25
2018-11-27T13:15:19.916Z,52.98
2018-11-27T13:17:54.496Z,53.12
2018-11-27T13:20:28.437Z,53.19
2018-11-27T13:23:02.495Z,53.32
2018-11-27T13:25:37.053Z,53.61
2018-11-27T13:28:12.411Z,53.49
2018-11-27T13:31:07.247Z,53.42
2018-11-27T13:34:01.593Z,53.75
2018-11-27T13:36:35.587Z,53.11
2018-11-27T13:39:20.655Z,53.68
2018-11-27T13:41:54.748Z,53.70
2018-11-27T13:44:28.736Z,53.60
2018-11-27T13:47:02.721Z,53.62
2018-11-27T13:49:36.725Z,53.72
2018-11-27T13:52:10.949Z,53.61
2018-11-27T13:54:44.995Z,53.98
2018-11-27T13:57:19.073Z,54.04
2018-11-27T13:59:53.195Z,53.90
2018-11-27T14:02:27.179Z,54.17
2018-11-27T14:05:02.111Z,54.27
2018-11-27T14:07:36.140Z,54.24
2018-11-27T14:10:11.384Z,53.76
2018-11-27T14:12:45.470Z,54.53
2018-11-27T14:15:20.835Z,54.56
2018-11-27T14:17:56.365Z,54.82
2018-11-27T14:20:30.808Z,54.76
2018-11-27T14:23:05.021Z,54.31
2018-11-27T14:25:39.178Z,54.78
2018-11-27T14:28:13.163Z,54.67
2018-11-27T14:30:47.276Z,54.72
2018-11-27T14:33:21.235Z,55.18
2018-11-27T14:35:55.384Z,55.17
2018-11-27T14:38:29.329Z,55.11
2018-11-27T14:41:03.385Z,55.61
2018-11-27T14:43:37.443Z,55.37
2018-11-27T14:46:11.558Z,55.28
2018-11-27T14:48:45.537Z,55.48
2018-11-27T14:51:19.554Z,55.46
2018-11-27T14:53:53.504Z,55.71
2018-11-27T14:56:27.678Z,55.71
2018-11-27T14:59:01.618Z,55.40
2018-11-27T15:01:35.696Z,55.65
2018-11-27T15:04:09.664Z,55.63
2018-11-27T15:06:43.667Z,55.75
2018-11-27T15:09:17.668Z,55.90
2018-11-27T15:11:51.807Z,55.77
2018-11-27T15:14:25.785Z,55.91
2018-11-27T15:17:00.096Z,55.86
2018-11-27T15:19:34.405Z,56.43
2018-11-27T15:22:14.956Z,56.27
2018-11-27T15:24:48.890Z,56.33
2018-11-27T15:27:22.891Z,56.71
2018-11-27T15:29:56.815Z,56.55
2018-11-27T15:32:30.787Z,56.34
2018-11-27T15:35:04.841Z,56.72
2018-11-27T15:37:39.030Z,56.73
2018-11-27T15:40:19.839Z,56.84
2018-11-27T15:42:54.152Z,56.65
2018-11-27T15:45:32.508Z,57.05
2018-11-27T15:48:08.332Z,57.13
2018-11-27T15:50:43.021Z,57.32
2018-11-27T15:53:17.074Z,57.42
2018-11-27T15:55:51.257Z,57.42
2018-11-27T15:58:25.374Z,57.54
2018-11-27T16:00:59.382Z,57.86
2018-11-27T16:03:33.436Z,58.00
2018-11-27T16:06:07.514Z,58.02
2018-11-27T16:08:41.668Z,58.05
2018-11-27T16:11:15.923Z,58.14
2018-11-27T16:13:55.173Z,58.19
2018-11-27T16:16:24.151Z,57.99
2018-11-27T16:18:58.495Z,58.11
2018-11-27T16:21:32.540Z,58.27
2018-11-27T16:24:06.801Z,58.40
2018-11-27T16:26:40.864Z,58.04
2018-11-27T16:29:14.948Z,58.14
2018-11-27T16:31:48.990Z,58.34
2018-11-27T16:34:23.254Z,58.43
2018-11-27T16:36:57.297Z,58.29
2018-11-27T16:39:31.270Z,58.09
2018-11-27T16:42:05.399Z,58.30
2018-11-27T16:44:39.449Z,58.15
2018-11-27T16:47:13.394Z,58.02
2018-11-27T16:49:47.552Z,57.96
2018-11-27T16:52:21.566Z,58.16
2018-11-27T16:54:55.605Z,58.04
2018-11-27T16:57:29.627Z,58.41
2018-11-27T17:00:04.120Z,58.11
2018-11-27T17:02:38.085Z,58.22
2018-11-27T17:05:12.090Z,58.32
2018-11-27T17:07:46.033Z,58.41
2018-11-27T17:10:20.998Z,58.78
2018-11-27T17:12:56.214Z,58.58
2018-11-27T17:15:30.383Z,58.40
2018-11-27T17:18:04.525Z,58.65
2018-11-27T17:20:40.323Z,58.37
2018-11-27T17:23:15.557Z,58.63
2018-11-27T17:25:49.696Z,58.55
2018-11-27T17:28:27.755Z,58.50
2018-11-27T17:31:11.760Z,58.48
2018-11-27T17:33:48.524Z,58.28
2018-11-27T17:36:22.556Z,58.24
2018-11-27T17:38:56.645Z,58.50
2018-11-27T17:41:30.837Z,58.70
2018-11-27T17:44:04.822Z,58.76
2018-11-27T17:46:39.151Z,58.40
2018-11-27T17:49:13.289Z,58.54
2018-11-27T17:51:47.270Z,58.37
2018-11-27T17:54:21.195Z,58.33
2018-11-27T17:56:55.172Z,57.95
2018-11-27T17:59:29.139Z,58.37
2018-11-27T18:02:04.471Z,58.63
2018-11-27T18:04:38.439Z,58.68
2018-11-27T18:07:12.641Z,58.64
2018-11-27T18:09:46.610Z,58.66
2018-11-27T18:12:20.600Z,58.63
2018-11-27T18:14:54.586Z,58.56
2018-11-27T18:17:28.638Z,58.61
2018-11-27T18:20:02.660Z,58.68
2018-11-27T18:22:36.718Z,58.81
2018-11-27T18:25:16.826Z,58.88
2018-11-27T18:27:51.259Z,58.81
2018-11-27T18:30:25.353Z,58.68
2018-11-27T18:32:59.338Z,58.80
2018-11-27T18:35:33.271Z,58.54
2018-11-27T18:38:07.536Z,58.40
2018-11-27T18:40:41.457Z,58.60
2018-11-27T18:43:15.446Z,58.51
2018-11-27T18:45:49.372Z,58.45
2018-11-27T18:48:23.338Z,58.80
2018-11-27T18:50:57.268Z,58.78
2018-11-27T18:53:31.560Z,58.54
2018-11-27T18:56:05.661Z,58.56
2018-11-27T18:58:39.718Z,58.63
2018-11-27T19:01:14.811Z,58.81
2018-11-27T19:03:48.878Z,58.51
2018-11-27T19:06:22.838Z,58.55
2018-11-27T19:08:56.855Z,58.48
2018-11-27T19:11:30.810Z,58.39
2018-11-27T19:14:05.129Z,58.38
2018-11-27T19:16:39.106Z,58.55
2018-11-27T19:19:13.245Z,59.52
2018-11-27T19:21:47.214Z,59.49
2018-11-27T19:24:21.243Z,59.69
2018-11-27T19:26:59.398Z,59.42
2018-11-27T19:29:34.999Z,59.25
2018-11-27T19:32:09.063Z,59.49
2018-11-27T19:34:43.112Z,59.07
2018-11-27T19:37:17.058Z,59.24
2018-11-27T19:39:51.037Z,59.20
2018-11-27T19:42:24.989Z,59.14
2018-11-27T19:44:58.946Z,59.17
2018-11-27T19:47:32.950Z,58.91
2018-11-27T19:50:10.609Z,59.07
2018-11-27T19:52:45.620Z,58.79
2018-11-27T19:55:19.990Z,59.23
2018-11-27T19:57:53.935Z,58.74
2018-11-27T20:00:29.195Z,58.86
2018-11-27T20:03:03.185Z,59.12
2018-11-27T20:05:37.269Z,58.64
2018-11-27T20:08:13.232Z,59.08
2018-11-27T20:10:47.234Z,59.06
2018-11-27T20:13:21.206Z,59.05
2018-11-27T20:15:55.354Z,59.04
2018-11-27T20:18:29.394Z,59.02
2018-11-27T20:21:03.513Z,58.80
2018-11-27T20:23:37.519Z,58.51
2018-11-27T20:26:11.893Z,58.96
2018-11-27T20:28:45.885Z,58.44
2018-11-27T20:31:19.907Z,58.69
2018-11-27T20:33:53.852Z,58.73
2018-11-27T20:36:28.799Z,58.61
2018-11-27T20:39:02.949Z,58.76
2018-11-27T20:41:37.236Z,58.72
2018-11-27T20:44:11.171Z,58.67
2018-11-27T20:46:45.248Z,58.50
2018-11-27T20:49:20.251Z,58.81
2018-11-27T20:51:54.465Z,58.74
2018-11-27T20:54:28.847Z,58.69
2018-11-27T20:57:02.984Z,58.62
2018-11-27T20:59:36.962Z,58.66
2018-11-27T21:02:10.985Z,58.62
2018-11-27T21:04:44.984Z,58.38
2018-11-27T21:07:18.968Z,58.23
2018-11-27T21:09:53.216Z,58.03
2018-11-27T21:12:27.167Z,58.49
2018-11-27T21:15:01.140Z,58.48
2018-11-27T21:17:35.197Z,58.40
2018-11-27T21:20:11.363Z,58.26
2018-11-27T21:22:45.357Z,58.41
2018-11-27T21:25:21.456Z,58.14
2018-11-27T21:28:01.756Z,58.06
2018-11-27T21:30:35.737Z,58.35
2018-11-27T21:33:09.866Z,58.39
2018-11-27T21:35:43.822Z,58.07
2018-11-27T21:38:17.883Z,58.30
2018-11-27T21:40:51.856Z,58.26
2018-11-27T21:43:25.895Z,57.97
2018-11-27T21:45:59.848Z,58.10
2018-11-27T21:48:33.922Z,58.42
2018-11-27T21:51:07.920Z,58.49
2018-11-27T21:53:41.975Z,58.54
2018-11-27T21:56:15.979Z,58.62
2018-11-27T21:58:49.963Z,58.43
2018-11-27T22:01:23.987Z,58.37
2018-11-27T22:03:58.011Z,58.23
2018-11-27T22:06:31.986Z,58.17
2018-11-27T22:09:07.478Z,58.46
2018-11-27T22:11:41.595Z,58.33
2018-11-27T22:14:15.592Z,58.53
2018-11-27T22:16:49.717Z,58.45
2018-11-27T22:19:23.874Z,58.43
2018-11-27T22:21:57.911Z,58.40
2018-11-27T22:24:31.937Z,58.26
2018-11-27T22:27:05.894Z,58.51
2018-11-27T22:29:39.977Z,58.65
2018-11-27T22:32:14.337Z,58.27
2018-11-27T22:34:48.432Z,58.07
2018-11-27T22:37:22.423Z,58.23
2018-11-27T22:39:56.563Z,58.37
2018-11-27T22:42:30.631Z,58.50
2018-11-27T22:45:04.817Z,58.35
2018-11-27T22:47:38.965Z,58.19
2018-11-27T22:50:15.158Z,58.42
2018-11-27T22:52:49.158Z,58.29
2018-11-27T22:55:23.183Z,58.45
2018-11-27T22:57:57.140Z,58.38
2018-11-27T23:00:36.265Z,58.37
2018-11-27T23:03:10.226Z,58.31
2018-11-27T23:05:44.476Z,58.30
2018-11-27T23:08:18.397Z,58.56
2018-11-27T23:10:52.391Z,58.79
2018-11-27T23:13:26.341Z,58.89
2018-11-27T23:16:00.397Z,58.66
2018-11-27T23:18:34.418Z,58.83
2018-11-27T23:21:08.515Z,58.73
2018-11-27T23:23:42.511Z,58.76
2018-11-27T23:26:16.646Z,58.84
2018-11-27T23:28:50.564Z,58.83
2018-11-27T23:31:24.658Z,58.56
2018-11-27T23:33:58.589Z,58.73
2018-11-27T23:36:32.685Z,58.73
2018-11-27T23:39:08.867Z,58.55
2018-11-27T23:41:43.226Z,58.57
2018-11-27T23:44:17.219Z,58.52
2018-11-27T23:46:51.274Z,58.50
2018-11-27T23:49:25.260Z,58.44
2018-11-27T23:51:59.498Z,58.60
2018-11-27T23:54:33.579Z,58.57
2018-11-27T23:57:07.747Z,58.49
2018-11-27T23:59:41.790Z,58.62
